MET'MAP v2.0
soon released !

Expected late october,
this new version will be
more efficient, smarter,
and hosted on a brand new
server x3 powerfull...
...and still free !


Not compatible ?
Try the mobile version !

LOG IN : | Subscribe | Disclaimer | Who is Orbifly ? |
ICAO code :
Legend : VFR Marginal VFR IFR Intensive IFR Very Intensive IFR
Visi :
Ceiling :
>= 8 km
>= 3000ft
5 to 8 km
1000 to 3000 ft
1500m to 5 km
500 to 1000 ft
800 to 1500m
200 to 500 ft
< 800m
< 200 ft

METAR - EPBY Bydgoszcz - 31 May 2020 01:56 UTC - Data Source NOAA   


- Airport Elevation : 235 ft
- IATA code : BZG
- No reported NOTAMs.


EPBY - Bydgoszcz

Latest METAR recorded : 2009/10/25 11:00 EPBY 251100Z 16006KT 130V190 5000 BR OVC011 09/07 Q1016
TAF TAF EPBY
Valid from the 30 at 18:00 until the 31 at 18:00 UTC


301730Z 3018/3118 01012KT CAVOK
TEMPO 3018/3101 02015G28KT
TEMPO 3109/3118 03018G32KT

Source NOAA


MET'MAP, your aeronautical weather chart ! - Copyright ORBIFLY December 2007

Programming & Development : Alexandra Zaïnal
Co-Developer : Marc-Olivier Méhu
Technical & hardware support : Manuel Goepfert
Concept & Financing : Baudouin d'Aumeries